Time;durP1;ratioP1;P1;durP2;ratioP2;P2;SDS_P1;SDS_P2;PMS_P1;PMS_P2;Temp;Humidity;BMP_temperature;BMP_pressure;BME280_temperature;BME280_humidity;BME280_pressure;Samples;Min_cycle;Max_cycle;Signal;HPM_P1;HPM_P2
2024/01/13 00:01:48;;;;;;;43.45;18.67;;;;;;;-1.06;80.97;99349.22;5133504;27;20080;-79
2024/01/13 00:04:14;;;;;;;37.53;16.65;;;;;;;-0.88;81.24;99377.66;5135095;27;20030;-78
2024/01/13 00:06:40;;;;;;;36.75;16.13;;;;;;;-1.05;80.89;99384.16;5133760;27;20027;-79
2024/01/13 00:09:06;;;;;;;35.10;16.95;;;;;;;-1.26;80.56;99368.03;5133753;27;20023;-78
2024/01/13 00:11:32;;;;;;;30.38;12.82;;;;;;;-1.15;79.77;99378.41;5134335;27;20485;-78
2024/01/13 00:13:57;;;;;;;33.58;13.93;;;;;;;-1.03;78.20;99395.44;5133986;27;20038;-78
2024/01/13 00:16:23;;;;;;;26.25;11.73;;;;;;;-1.28;77.44;99345.91;5132376;27;20031;-79
2024/01/13 00:18:48;;;;;;;27.38;11.23;;;;;;;-1.22;76.31;99368.16;5122691;27;20023;-78
2024/01/13 00:21:14;;;;;;;37.30;15.55;;;;;;;-1.23;76.15;99359.22;5115960;27;20040;-80
2024/01/13 00:23:39;;;;;;;30.30;13.68;;;;;;;-1.54;76.40;99290.50;5134709;27;20027;-81
2024/01/13 00:26:05;;;;;;;28.15;13.27;;;;;;;-1.09;76.69;99371.63;5134840;27;20054;-79
2024/01/13 00:28:31;;;;;;;31.88;13.95;;;;;;;-1.13;76.72;99368.00;5125236;27;20538;-79
2024/01/13 00:30:56;;;;;;;33.10;12.88;;;;;;;-1.17;76.78;99354.34;5114492;27;20094;-81
2024/01/13 00:33:22;;;;;;;34.92;15.18;;;;;;;-1.44;76.59;99317.91;5133112;27;20026;-78
2024/01/13 00:35:47;;;;;;;26.75;12.52;;;;;;;-1.01;74.92;99390.47;5133001;27;20031;-78
2024/01/13 00:38:12;;;;;;;26.25;10.70;;;;;;;-0.85;73.09;99377.78;5134268;27;20629;-79
2024/01/13 00:40:38;;;;;;;26.50;11.80;;;;;;;-0.83;73.11;99380.13;5134282;27;20080;-79
2024/01/13 00:43:04;;;;;;;24.95;10.85;;;;;;;-0.95;73.22;99361.97;5133058;27;20114;-78
2024/01/13 00:45:29;;;;;;;32.28;12.45;;;;;;;-1.10;73.63;99341.00;5133028;27;20507;-80
2024/01/13 00:47:54;;;;;;;35.63;14.73;;;;;;;-0.98;73.42;99351.81;5123932;27;20024;-79
2024/01/13 00:50:20;;;;;;;31.85;12.98;;;;;;;-1.06;72.82;99355.44;5127949;27;20114;-79
2024/01/13 00:52:45;;;;;;;29.75;13.63;;;;;;;-1.03;73.57;99367.53;5134238;27;20066;-80
2024/01/13 00:55:11;;;;;;;32.05;13.52;;;;;;;-0.95;73.10;99383.66;5132576;27;20023;-79
2024/01/13 00:57:36;;;;;;;32.83;14.50;;;;;;;-0.95;73.80;99393.72;5134454;27;20023;-78
2024/01/13 01:00:02;;;;;;;32.58;13.40;;;;;;;-0.95;74.04;99385.56;5133354;27;20106;-79
2024/01/13 01:02:27;;;;;;;26.48;11.63;;;;;;;-1.41;72.63;99314.53;5132821;27;20458;-79
2024/01/13 01:04:53;;;;;;;21.45;9.13;;;;;;;-0.97;71.16;99391.38;5132255;27;20019;-78
2024/01/13 01:07:18;;;;;;;25.52;10.57;;;;;;;-1.27;70.75;99328.47;5123780;27;20031;-77
2024/01/13 01:09:44;;;;;;;14.50;7.20;;;;;;;-1.02;67.77;99366.38;5127419;27;20030;-78
2024/01/13 01:12:10;;;;;;;20.20;8.70;;;;;;;-1.56;66.78;99276.50;5132820;27;20115;-78
2024/01/13 01:14:35;;;;;;;21.30;9.70;;;;;;;-1.16;65.91;99328.03;5132762;27;20042;-81
2024/01/13 01:17:01;;;;;;;15.40;7.15;;;;;;;-0.90;65.81;99369.06;5132599;27;20027;-80
2024/01/13 01:19:26;;;;;;;18.27;8.00;;;;;;;-1.40;65.26;99301.78;5132236;27;20023;-79
2024/01/13 01:21:52;;;;;;;19.08;8.32;;;;;;;-1.16;64.17;99328.81;5124615;27;20027;-79
2024/01/13 01:24:17;;;;;;;25.08;10.32;;;;;;;-0.94;65.35;99351.91;5127685;27;20058;-78
2024/01/13 01:26:42;;;;;;;23.20;10.43;;;;;;;-1.06;65.62;99341.09;5132578;27;20015;-78
2024/01/13 01:29:08;;;;;;;16.35;8.60;;;;;;;-1.14;63.94;99329.25;5132523;27;20114;-80
2024/01/13 01:31:34;;;;;;;25.63;11.30;;;;;;;-1.20;65.23;99325.19;5131981;27;20023;-80
2024/01/13 01:34:00;;;;;;;21.85;10.80;;;;;;;-1.02;65.88;99344.69;5131973;27;20114;-78
2024/01/13 01:36:25;;;;;;;27.42;10.68;;;;;;;-1.16;66.25;99306.34;5133344;27;20427;-78
2024/01/13 01:38:51;;;;;;;22.38;10.27;;;;;;;-1.05;66.46;99331.84;5132656;27;20552;-79
2024/01/13 01:41:16;;;;;;;23.20;10.02;;;;;;;-0.90;66.96;99350.06;5131776;27;20055;-78
2024/01/13 01:43:42;;;;;;;22.90;10.45;;;;;;;-0.90;66.19;99341.94;5131908;27;20480;-80
2024/01/13 01:46:11;;;;;;;26.65;11.70;;;;;;;-1.04;65.87;99328.78;5104988;27;20030;-80
2024/01/13 01:48:38;;;;;;;22.50;10.98;;;;;;;-1.18;65.93;99303.19;5133231;27;20110;-80
2024/01/13 01:51:05;;;;;;;23.55;10.35;;;;;;;-1.03;66.12;99324.94;5119221;27;20023;-81
2024/01/13 01:53:31;;;;;;;23.08;10.82;;;;;;;-0.92;66.46;99345.03;5131733;27;20059;-82
2024/01/13 01:55:58;;;;;;;23.48;10.90;;;;;;;-1.52;66.11;99261.16;5129118;27;20023;-80
2024/01/13 01:58:23;;;;;;;23.80;10.73;;;;;;;-1.04;65.72;99336.13;5133151;27;20114;-80
2024/01/13 02:00:49;;;;;;;21.60;11.27;;;;;;;-1.11;65.79;99314.22;5131750;27;20481;-82
2024/01/13 02:03:15;;;;;;;29.40;13.25;;;;;;;-1.50;67.05;99273.22;5125784;27;20259;-81
2024/01/13 02:05:40;;;;;;;28.20;11.68;;;;;;;-1.23;67.96;99317.75;5111813;28;20023;-78
2024/01/13 02:08:06;;;;;;;28.30;12.85;;;;;;;-1.21;68.74;99314.72;5120602;27;20485;-78
2024/01/13 02:10:32;;;;;;;24.75;12.73;;;;;;;-1.25;67.38;99320.03;5108441;27;20035;-79
2024/01/13 02:12:58;;;;;;;31.83;14.18;;;;;;;-1.36;67.28;99305.38;5132336;27;20027;-81
2024/01/13 02:15:24;;;;;;;37.47;15.15;;;;;;;-1.63;66.74;99258.91;5132135;27;20034;-82
2024/01/13 02:17:49;;;;;;;32.50;13.50;;;;;;;-1.15;66.91;99338.53;5130992;27;20023;-78
2024/01/13 02:20:15;;;;;;;26.23;11.45;;;;;;;-1.13;66.51;99332.75;5131777;27;20047;-80
2024/01/13 02:22:40;;;;;;;29.08;12.18;;;;;;;-1.55;64.89;99256.41;5131371;27;20050;-79
2024/01/13 02:25:07;;;;;;;28.30;12.57;;;;;;;-1.00;65.46;99348.66;5132244;27;20487;-79
2024/01/13 02:27:33;;;;;;;27.40;11.95;;;;;;;-1.68;65.66;99252.94;5133019;27;20038;-78
2024/01/13 02:29:59;;;;;;;26.23;11.45;;;;;;;-1.15;65.96;99335.81;5132045;27;20027;-79
2024/01/13 02:32:24;;;;;;;26.50;10.90;;;;;;;-1.36;64.81;99308.88;5132704;27;20031;-80
2024/01/13 02:34:50;;;;;;;29.42;12.60;;;;;;;-1.15;65.22;99337.75;5132656;27;20027;-80
2024/01/13 02:37:15;;;;;;;27.52;11.68;;;;;;;-1.31;65.55;99318.69;5131115;27;20037;-78
2024/01/13 02:39:40;;;;;;;26.23;11.68;;;;;;;-1.51;65.64;99293.34;5132737;27;20015;-79
2024/01/13 02:42:06;;;;;;;26.13;11.30;;;;;;;-1.49;66.38;99298.38;5118522;27;20087;-80
2024/01/13 02:44:32;;;;;;;25.55;10.60;;;;;;;-1.86;66.87;99236.16;5131278;27;20071;-78
2024/01/13 02:46:57;;;;;;;23.55;11.60;;;;;;;-1.40;66.84;99307.97;5131248;27;20023;-81
2024/01/13 02:49:23;;;;;;;28.20;12.05;;;;;;;-1.88;65.45;99249.25;5131184;27;20400;-79
2024/01/13 02:51:48;;;;;;;24.90;11.95;;;;;;;-1.46;66.88;99303.13;5117587;27;20148;-80
2024/01/13 02:54:14;;;;;;;29.05;11.93;;;;;;;-1.63;66.30;99290.66;5130252;27;20488;-79
2024/01/13 02:56:40;;;;;;;35.85;12.93;;;;;;;-1.56;67.11;99301.66;5130887;27;20080;-79
2024/01/13 02:59:06;;;;;;;37.35;14.65;;;;;;;-1.38;66.94;99321.97;5123707;27;20016;-78
2024/01/13 03:01:33;;;;;;;34.80;13.40;;;;;;;-1.48;66.85;99314.31;5125172;27;20050;-80
2024/01/13 03:03:59;;;;;;;27.08;11.68;;;;;;;-1.90;67.17;99250.72;5132364;27;20499;-79
2024/01/13 03:06:25;;;;;;;37.45;17.60;;;;;;;-1.46;68.06;99319.41;5130185;27;20027;-81
2024/01/13 03:08:51;;;;;;;38.45;18.25;;;;;;;-1.83;68.16;99283.44;5118355;28;20068;-79
2024/01/13 03:11:17;;;;;;;43.13;20.80;;;;;;;-2.24;68.01;99222.22;5131190;27;20123;-78
2024/01/13 03:13:43;;;;;;;30.00;14.80;;;;;;;-1.86;67.21;99286.81;5131158;27;20061;-78
2024/01/13 03:16:09;;;;;;;31.95;13.82;;;;;;;-1.68;68.50;99299.78;5130036;27;20023;-80
2024/01/13 03:18:35;;;;;;;33.85;14.50;;;;;;;-1.76;68.05;99298.00;5117975;27;20411;-82
2024/01/13 03:21:02;;;;;;;31.50;14.20;;;;;;;-1.79;68.27;99312.19;5130684;28;20114;-81
2024/01/13 03:23:28;;;;;;;31.60;13.75;;;;;;;-2.14;68.69;99260.44;5131260;27;20617;-78
2024/01/13 03:25:54;;;;;;;45.90;32.10;;;;;;;-2.37;68.80;99237.66;5130842;27;20035;-81
2024/01/13 03:28:19;;;;;;;30.55;14.63;;;;;;;-1.94;68.99;99312.91;5130945;27;20023;-80
2024/01/13 03:30:45;;;;;;;29.52;15.60;;;;;;;-2.14;68.82;99284.78;5116944;27;20069;-80
2024/01/13 03:33:10;;;;;;;45.30;24.38;;;;;;;-1.82;67.53;99322.94;5117728;27;20473;-81
2024/01/13 03:35:35;;;;;;;35.97;15.25;;;;;;;-1.86;66.58;99317.38;5130690;27;20042;-78
2024/01/13 03:38:01;;;;;;;25.02;12.88;;;;;;;-1.87;66.21;99315.81;5110455;28;20115;-78
2024/01/13 03:40:26;;;;;;;31.23;16.13;;;;;;;-1.78;66.54;99321.91;5124450;28;20039;-79
2024/01/13 03:42:52;;;;;;;29.30;12.80;;;;;;;-2.03;66.48;99276.22;5130835;27;20015;-78
2024/01/13 03:45:17;;;;;;;33.15;14.77;;;;;;;-2.01;66.83;99296.41;5130436;27;20027;-78
2024/01/13 03:47:43;;;;;;;24.63;11.13;;;;;;;-2.08;67.60;99301.59;5110354;28;20011;-78
2024/01/13 03:50:08;;;;;;;34.03;15.38;;;;;;;-2.06;67.13;99297.44;5111788;28;20093;-78
2024/01/13 03:52:34;;;;;;;30.02;15.18;;;;;;;-1.63;66.22;99353.72;5104991;27;20051;-78
2024/01/13 03:54:59;;;;;;;34.67;16.98;;;;;;;-1.75;65.85;99329.34;5131323;27;20057;-79
2024/01/13 03:57:25;;;;;;;30.15;14.40;;;;;;;-1.68;66.51;99334.19;5115718;27;20028;-78
2024/01/13 03:59:50;;;;;;;31.65;14.15;;;;;;;-2.30;66.04;99231.69;5123526;28;20501;-77
2024/01/13 04:02:16;;;;;;;35.75;17.52;;;;;;;-1.42;67.37;99371.78;5116456;27;20114;-81
2024/01/13 04:04:42;;;;;;;28.15;14.30;;;;;;;-1.85;66.88;99291.09;5132557;27;20028;-80
2024/01/13 04:07:08;;;;;;;30.25;16.15;;;;;;;-1.76;66.79;99327.78;5127961;27;20032;-82
2024/01/13 04:09:34;;;;;;;29.88;14.93;;;;;;;-2.05;67.61;99301.69;5127384;27;20022;-78
2024/01/13 04:12:00;;;;;;;39.60;22.92;;;;;;;-1.94;67.86;99331.84;5129126;27;20027;-79
2024/01/13 04:14:25;;;;;;;36.17;17.42;;;;;;;-1.99;68.85;99329.38;5128190;27;20038;-79
2024/01/13 04:16:51;;;;;;;30.95;15.70;;;;;;;-2.03;69.14;99344.69;5134274;27;20028;-79
2024/01/13 04:19:16;;;;;;;29.40;14.00;;;;;;;-2.47;69.63;99292.19;5134257;27;20027;-78
2024/01/13 04:21:42;;;;;;;26.45;10.15;;;;;;;-2.23;68.98;99340.16;5136086;27;20030;-83
2024/01/13 04:24:08;;;;;;;16.25;7.80;;;;;;;-2.23;68.19;99332.81;5134802;27;20078;-79
2024/01/13 04:26:34;;;;;;;27.80;11.82;;;;;;;-2.27;67.34;99315.69;5120391;27;20608;-79
2024/01/13 04:29:00;;;;;;;23.00;10.60;;;;;;;-2.28;67.79;99310.59;5135666;27;20454;-78
2024/01/13 04:31:26;;;;;;;28.63;13.15;;;;;;;-2.67;67.92;99272.22;5127748;27;20084;-79
2024/01/13 04:33:51;;;;;;;35.53;13.45;;;;;;;-2.34;68.39;99311.94;5127368;27;20027;-79
2024/01/13 04:36:17;;;;;;;27.55;14.35;;;;;;;-2.34;68.26;99312.72;5120876;27;20483;-79
2024/01/13 04:38:43;;;;;;;27.08;11.20;;;;;;;-2.37;68.11;99315.31;5135355;27;20115;-79
2024/01/13 04:41:09;;;;;;;28.50;13.70;;;;;;;-2.27;67.62;99337.31;5133851;27;20042;-80
2024/01/13 04:43:37;;;;;;;23.38;11.38;;;;;;;-2.62;67.26;99285.53;5120794;27;20027;-79
2024/01/13 04:46:03;;;;;;;46.75;22.30;;;;;;;-2.37;68.72;99326.16;5107615;27;20015;-79
2024/01/13 04:48:28;;;;;;;53.53;26.70;;;;;;;-2.52;68.78;99297.81;5134453;27;20503;-78
2024/01/13 04:50:53;;;;;;;58.35;28.58;;;;;;;-2.99;68.99;99241.38;5106870;27;20479;-81
2024/01/13 04:53:19;;;;;;;29.90;15.35;;;;;;;-2.63;69.56;99313.69;5133680;27;20524;-78
2024/01/13 04:55:44;;;;;;;50.20;26.73;;;;;;;-2.97;69.61;99270.78;5119051;27;20099;-78
2024/01/13 04:58:10;;;;;;;96.05;42.03;;;;;;;-2.48;70.69;99360.97;5133870;27;20032;-79
2024/01/13 05:00:35;;;;;;;43.53;21.17;;;;;;;-2.82;70.91;99334.22;5133155;27;20030;-82
2024/01/13 05:03:01;;;;;;;124.88;46.85;;;;;;;-3.18;69.90;99292.41;5133154;27;20053;-79
2024/01/13 05:05:26;;;;;;;139.23;59.08;;;;;;;-2.65;69.21;99356.50;5127870;27;20115;-78
2024/01/13 05:07:52;;;;;;;53.85;24.05;;;;;;;-2.76;68.29;99328.28;5125915;27;20513;-80
2024/01/13 05:10:17;;;;;;;33.10;16.38;;;;;;;-2.89;68.52;99318.53;5132560;27;20023;-81
2024/01/13 05:12:43;;;;;;;77.85;39.13;;;;;;;-2.80;68.30;99340.09;5133189;27;20034;-79
2024/01/13 05:15:09;;;;;;;51.92;22.00;;;;;;;-2.61;69.07;99379.06;5115404;27;20042;-78
2024/01/13 05:17:34;;;;;;;213.75;79.72;;;;;;;-2.95;68.66;99334.19;5124658;27;20485;-80
2024/01/13 05:19:59;;;;;;;82.82;37.03;;;;;;;-2.90;67.92;99344.81;5133017;27;20023;-79
2024/01/13 05:22:25;;;;;;;52.63;23.45;;;;;;;-3.25;68.90;99296.78;5133445;27;20127;-81
2024/01/13 05:24:50;;;;;;;31.65;13.40;;;;;;;-3.42;70.22;99279.56;5127027;27;20454;-79
2024/01/13 05:27:16;;;;;;;30.13;13.60;;;;;;;-3.04;71.33;99338.09;5125635;27;20057;-78
2024/01/13 05:29:42;;;;;;;34.80;12.88;;;;;;;-3.16;72.04;99329.91;5118716;27;20445;-81
2024/01/13 05:32:08;;;;;;;27.23;10.52;;;;;;;-3.28;72.95;99312.53;5132725;27;20040;-79
2024/01/13 05:34:34;;;;;;;25.58;11.35;;;;;;;-3.58;71.53;99283.19;5132938;27;20483;-82
2024/01/13 05:36:59;;;;;;;29.02;10.98;;;;;;;-3.23;70.30;99325.03;5119933;27;20421;-81
2024/01/13 05:39:25;;;;;;;31.58;10.98;;;;;;;-3.15;71.12;99351.22;5131793;27;20069;-79
2024/01/13 05:41:50;;;;;;;28.80;12.05;;;;;;;-3.46;72.45;99316.47;5115593;27;20027;-79
2024/01/13 05:44:16;;;;;;;21.38;9.73;;;;;;;-3.23;71.31;99337.75;5133463;27;20028;-79
2024/01/13 05:46:41;;;;;;;29.10;12.00;;;;;;;-3.16;72.24;99325.31;5132034;27;20030;-79
2024/01/13 05:49:07;;;;;;;54.50;21.33;;;;;;;-3.19;71.27;99334.06;5112836;27;20024;-78
2024/01/13 05:51:33;;;;;;;71.85;27.00;;;;;;;-3.17;71.65;99329.13;5112000;28;20058;-80
2024/01/13 05:53:59;;;;;;;47.80;17.88;;;;;;;-3.52;71.97;99265.69;5125326;27;20100;-79
2024/01/13 05:56:25;;;;;;;48.88;21.83;;;;;;;-3.28;71.42;99307.13;5111952;28;20118;-79
2024/01/13 05:58:51;;;;;;;34.60;15.05;;;;;;;-3.24;71.34;99295.63;5131869;27;20412;-79
2024/01/13 06:01:17;;;;;;;27.17;11.50;;;;;;;-3.16;71.04;99319.13;5133498;27;20540;-80
2024/01/13 06:03:42;;;;;;;30.25;11.68;;;;;;;-3.18;71.34;99311.31;5126913;27;20098;-79
2024/01/13 06:06:08;;;;;;;29.65;11.38;;;;;;;-3.12;71.67;99311.91;5124861;27;20042;-79
2024/01/13 06:08:33;;;;;;;28.73;11.77;;;;;;;-3.20;71.88;99307.41;5125569;27;20072;-79
2024/01/13 06:11:00;;;;;;;25.40;11.20;;;;;;;-3.24;71.16;99301.03;5124778;27;20487;-79
2024/01/13 06:13:26;;;;;;;27.80;9.57;;;;;;;-3.12;70.34;99309.22;5131696;27;20030;-79
2024/01/13 06:15:51;;;;;;;28.92;10.63;;;;;;;-2.84;70.28;99347.31;5131346;27;20614;-81
2024/01/13 06:18:17;;;;;;;30.00;12.50;;;;;;;-2.99;70.15;99327.06;5131421;27;20023;-81
2024/01/13 06:20:42;;;;;;;35.10;13.50;;;;;;;-3.28;70.90;99288.22;5131128;27;20027;-79
2024/01/13 06:23:08;;;;;;;32.60;14.15;;;;;;;-3.08;71.53;99307.44;5131084;27;20771;-80
2024/01/13 06:25:33;;;;;;;49.85;25.98;;;;;;;-3.07;70.04;99285.47;5131462;27;20031;-81
2024/01/13 06:27:59;;;;;;;31.63;14.40;;;;;;;-2.63;70.33;99335.31;5132802;27;20027;-82
2024/01/13 06:30:24;;;;;;;28.92;12.07;;;;;;;-2.78;69.60;99297.31;5131473;27;20034;-79
2024/01/13 06:32:50;;;;;;;30.23;11.10;;;;;;;-2.65;70.72;99326.75;5131952;27;20046;-79
2024/01/13 06:35:15;;;;;;;28.33;10.85;;;;;;;-2.73;70.59;99295.19;5132197;27;20031;-79
2024/01/13 06:37:40;;;;;;;30.80;11.68;;;;;;;-2.86;69.94;99274.63;5131651;27;20031;-80
2024/01/13 06:40:08;;;;;;;29.42;14.55;;;;;;;-2.61;69.76;99303.34;5131944;27;20027;-80
2024/01/13 06:42:34;;;;;;;31.20;12.35;;;;;;;-2.76;69.06;99289.63;5132457;27;20019;-83
2024/01/13 06:45:00;;;;;;;26.98;10.88;;;;;;;-2.55;68.99;99320.94;5131758;27;20027;-80
2024/01/13 06:47:25;;;;;;;27.73;12.45;;;;;;;-2.49;67.76;99325.00;5131407;27;20034;-79
2024/01/13 06:49:51;;;;;;;27.50;12.23;;;;;;;-2.57;67.21;99301.53;5131670;27;20039;-79
2024/01/13 06:52:16;;;;;;;149.95;56.40;;;;;;;-2.39;65.69;99322.97;5130802;27;20055;-84
2024/01/13 06:54:42;;;;;;;123.30;42.55;;;;;;;-2.27;65.38;99323.78;5131338;27;20027;-79
2024/01/13 06:57:07;;;;;;;112.45;47.03;;;;;;;-2.41;63.58;99290.06;5130896;27;20027;-81
2024/01/13 06:59:33;;;;;;;132.50;51.15;;;;;;;-2.35;63.56;99308.44;5131180;27;20023;-79
2024/01/13 07:01:58;;;;;;;31.98;13.93;;;;;;;-2.10;63.88;99320.88;5131336;27;20015;-80
2024/01/13 07:04:24;;;;;;;28.77;12.98;;;;;;;-2.07;63.02;99316.72;5132326;27;20106;-80
2024/01/13 07:06:49;;;;;;;26.88;11.73;;;;;;;-1.79;63.26;99342.00;5131120;27;20031;-79
2024/01/13 07:09:17;;;;;;;16.40;7.05;;;;;;;-1.86;61.92;99320.09;5131231;27;20563;-79
2024/01/13 07:11:42;;;;;;;22.27;10.10;;;;;;;-1.78;61.50;99332.75;5131071;27;20034;-79
2024/01/13 07:14:08;;;;;;;24.17;10.05;;;;;;;-1.63;60.96;99344.03;5131018;27;20031;-79
2024/01/13 07:16:33;;;;;;;22.27;10.70;;;;;;;-1.58;60.59;99331.03;5116835;27;20510;-79
2024/01/13 07:18:59;;;;;;;33.00;15.90;;;;;;;-1.37;61.07;99339.81;5132430;27;20031;-79
2024/01/13 07:21:25;;;;;;;20.33;11.38;;;;;;;-1.29;58.53;99351.66;5114440;27;20031;-79
2024/01/13 07:23:50;;;;;;;65.75;25.45;;;;;;;-1.17;59.32;99365.19;5121647;28;20023;-79
2024/01/13 07:26:16;;;;;;;89.50;35.88;;;;;;;-1.37;59.64;99303.78;5130627;27;20035;-79
2024/01/13 07:28:42;;;;;;;72.30;28.95;;;;;;;-1.25;57.54;99309.97;5131906;28;20030;-79
2024/01/13 07:31:07;;;;;;;46.13;19.58;;;;;;;-1.25;57.48;99307.25;5130667;27;20072;-79
2024/01/13 07:33:33;;;;;;;36.90;16.70;;;;;;;-0.91;57.49;99356.66;5130987;27;20024;-79
2024/01/13 07:35:58;;;;;;;32.22;11.85;;;;;;;-0.95;57.51;99320.50;5130644;27;20449;-80
2024/01/13 07:38:24;;;;;;;40.85;19.55;;;;;;;-0.80;56.39;99329.81;5130805;27;20023;-82
2024/01/13 07:40:49;;;;;;;25.73;12.77;;;;;;;-0.63;56.48;99348.50;5134458;27;20440;-79
2024/01/13 07:43:15;;;;;;;20.35;6.97;;;;;;;-0.73;55.54;99335.44;5124443;27;20027;-78
2024/01/13 07:45:40;;;;;;;13.63;7.10;;;;;;;-0.72;55.29;99345.94;5131595;27;20480;-79
2024/01/13 07:48:06;;;;;;;48.58;21.67;;;;;;;-0.62;55.30;99348.19;5135298;27;20031;-79
2024/01/13 07:50:32;;;;;;;19.38;10.70;;;;;;;-0.62;55.82;99336.53;5134507;27;20015;-79
2024/01/13 07:52:58;;;;;;;38.85;17.75;;;;;;;-0.44;55.16;99354.09;5134547;27;20515;-82
2024/01/13 07:55:24;;;;;;;30.17;13.35;;;;;;;-0.48;54.70;99332.25;5134789;27;20537;-79
2024/01/13 07:57:49;;;;;;;32.40;16.27;;;;;;;-0.49;54.75;99343.47;5124812;27;20031;-79
2024/01/13 08:00:15;;;;;;;28.83;12.57;;;;;;;-0.50;53.62;99322.91;5131301;27;20456;-81
2024/01/13 08:02:41;;;;;;;30.17;14.52;;;;;;;-0.72;53.73;99274.63;5124804;27;20035;-79
2024/01/13 08:05:06;;;;;;;23.48;12.20;;;;;;;-0.20;53.55;99359.38;5127569;27;20035;-80
2024/01/13 08:07:32;;;;;;;22.90;9.63;;;;;;;-0.19;54.28;99354.75;5124144;27;20489;-80
2024/01/13 08:09:57;;;;;;;31.42;15.15;;;;;;;-0.49;53.62;99298.13;5131045;27;20408;-79
2024/01/13 08:12:22;;;;;;;14.85;9.02;;;;;;;-0.10;52.80;99364.28;5124714;27;20023;-80
2024/01/13 08:14:48;;;;;;;26.33;11.93;;;;;;;-0.48;53.66;99299.69;5117916;27;20062;-81
2024/01/13 08:17:14;;;;;;;27.67;13.63;;;;;;;0.12;53.33;99371.03;5124337;27;20019;-82
2024/01/13 08:19:40;;;;;;;28.02;14.48;;;;;;;-0.10;53.05;99309.97;5135015;27;20543;-79
2024/01/13 08:22:06;;;;;;;16.80;8.13;;;;;;;0.09;52.79;99346.50;5134460;27;20104;-79
2024/01/13 08:24:31;;;;;;;39.47;18.20;;;;;;;0.08;52.98;99345.72;5135386;27;20098;-79
2024/01/13 08:26:57;;;;;;;34.78;13.65;;;;;;;-0.04;52.43;99340.38;5134885;27;20042;-80
2024/01/13 08:29:23;;;;;;;37.97;15.48;;;;;;;0.06;53.00;99336.34;5135305;27;20020;-80
2024/01/13 08:31:50;;;;;;;40.15;14.57;;;;;;;0.19;52.29;99348.69;5135310;27;20042;-80
2024/01/13 08:34:16;;;;;;;37.47;15.43;;;;;;;0.15;51.94;99343.19;5133799;27;20098;-81
2024/01/13 08:36:41;;;;;;;24.42;10.60;;;;;;;0.26;52.25;99343.41;5134480;27;20031;-79
2024/01/13 08:39:07;;;;;;;35.00;13.20;;;;;;;0.37;52.02;99339.03;5133646;27;20019;-79
2024/01/13 08:41:33;;;;;;;18.73;8.88;;;;;;;0.28;51.96;99331.06;5133762;27;20169;-79
2024/01/13 08:43:59;;;;;;;49.00;17.77;;;;;;;0.17;50.62;99345.53;5129754;27;20040;-80
2024/01/13 08:46:25;;;;;;;28.13;11.68;;;;;;;0.09;51.46;99322.06;5123608;27;20028;-81
2024/01/13 08:48:50;;;;;;;31.63;14.77;;;;;;;0.56;51.53;99357.31;5133639;27;20023;-79
2024/01/13 08:51:17;;;;;;;43.63;16.48;;;;;;;0.50;51.71;99337.00;5133667;27;20030;-79
2024/01/13 08:53:43;;;;;;;84.40;31.17;;;;;;;0.31;51.85;99292.31;5133398;27;20071;-81
2024/01/13 08:56:09;;;;;;;126.82;40.17;;;;;;;0.52;50.55;99327.34;5133319;27;20038;-81
2024/01/13 08:58:34;;;;;;;110.00;31.23;;;;;;;0.60;51.27;99320.16;5133828;27;20027;-79
2024/01/13 09:01:00;;;;;;;76.93;22.58;;;;;;;0.42;51.35;99276.25;5133494;27;20030;-81
2024/01/13 09:03:28;;;;;;;114.05;30.17;;;;;;;0.80;50.64;99329.91;5120938;27;20063;-81
2024/01/13 09:05:54;;;;;;;107.82;30.42;;;;;;;0.42;50.66;99259.97;5133495;27;20019;-78
2024/01/13 09:08:19;;;;;;;104.90;29.80;;;;;;;0.86;50.86;99312.16;5133360;27;20381;-80
2024/01/13 09:10:45;;;;;;;137.02;38.83;;;;;;;0.85;50.23;99309.78;5133166;27;20028;-80
2024/01/13 09:13:10;;;;;;;404.00;96.60;;;;;;;0.77;50.84;99279.75;5113308;27;20148;-79
2024/01/13 09:15:36;;;;;;;159.05;39.35;;;;;;;0.10;49.79;99177.72;5122691;27;20039;-83
2024/01/13 09:18:03;;;;;;;273.92;72.93;;;;;;;1.00;49.94;99311.66;5112184;28;20390;-79
2024/01/13 09:20:29;;;;;;;128.03;40.13;;;;;;;1.15;49.95;99299.91;5113573;28;20020;-79
2024/01/13 09:22:54;;;;;;;97.45;37.50;;;;;;;1.11;50.94;99277.28;5116943;27;20026;-81
2024/01/13 09:25:20;;;;;;;36.05;15.88;;;;;;;1.31;49.95;99295.19;5123118;27;20110;-79
2024/01/13 09:27:45;;;;;;;23.35;10.63;;;;;;;0.85;49.92;99212.66;5113348;28;20088;-79
2024/01/13 09:30:11;;;;;;;44.15;18.90;;;;;;;1.36;49.08;99286.72;5104972;28;20390;-79
2024/01/13 09:32:37;;;;;;;21.10;9.65;;;;;;;1.38;49.90;99265.38;5122968;27;20500;-79
2024/01/13 09:35:04;;;;;;;35.85;13.57;;;;;;;1.44;49.48;99250.31;5113750;27;20023;-79
2024/01/13 09:37:29;;;;;;;23.73;11.77;;;;;;;1.07;48.83;99189.38;5112175;28;20122;-79
2024/01/13 09:39:55;;;;;;;32.90;13.82;;;;;;;1.05;48.40;99178.84;5111695;28;20107;-79
2024/01/13 09:42:43;;;;;;;21.75;9.98;;;;;;;1.45;47.95;99230.09;5112162;28;20024;-81
2024/01/13 09:45:10;;;;;;;21.77;9.20;;;;;;;1.03;48.53;99151.22;5112361;28;20050;-78
2024/01/13 09:47:36;;;;;;;16.98;7.72;;;;;;;0.97;48.21;99155.38;5107152;28;20081;-79
2024/01/13 09:50:04;;;;;;;16.52;8.57;;;;;;;1.57;48.56;99238.09;5125287;27;20027;-81
2024/01/13 09:52:30;;;;;;;16.15;6.13;;;;;;;1.17;48.73;99161.56;5131989;27;20564;-78
2024/01/13 09:55:00;;;;;;;23.42;9.90;;;;;;;1.56;48.49;99212.03;5131726;27;20035;-82
2024/01/13 09:57:26;;;;;;;22.17;10.30;;;;;;;1.49;49.09;99195.56;5133738;27;20038;-81
2024/01/13 09:59:52;;;;;;;11.55;5.85;;;;;;;1.56;47.66;99201.13;5131434;27;20711;-81
2024/01/13 10:02:18;;;;;;;16.13;7.80;;;;;;;1.67;47.95;99219.56;5131086;27;20565;-79
2024/01/13 10:04:44;;;;;;;20.90;9.02;;;;;;;1.71;47.95;99226.66;5131854;27;20114;-79
2024/01/13 10:07:10;;;;;;;23.75;9.65;;;;;;;1.38;48.37;99126.53;5131581;27;20465;-79
2024/01/13 10:09:35;;;;;;;21.42;10.18;;;;;;;1.83;47.68;99209.31;5132498;27;20015;-80
2024/01/13 10:12:08;;;;;;;23.75;10.93;;;;;;;1.32;47.90;99114.41;5131557;27;20023;-79
2024/01/13 10:14:40;;;;;;;27.25;11.88;;;;;;;1.96;47.89;99199.78;5129924;27;20030;-80
2024/01/13 10:17:06;;;;;;;17.00;7.95;;;;;;;1.92;47.64;99191.56;5129869;27;20019;-79
2024/01/13 10:19:37;;;;;;;20.65;7.63;;;;;;;1.93;47.04;99184.19;5130572;27;20087;-78
2024/01/13 10:22:02;;;;;;;15.23;8.18;;;;;;;1.50;47.41;99118.19;5131569;27;20462;-78
2024/01/13 10:24:29;;;;;;;19.45;9.73;;;;;;;1.95;48.04;99171.75;5112499;27;20042;-78
2024/01/13 10:26:55;;;;;;;11.23;4.53;;;;;;;1.80;46.14;99141.97;5131525;27;20027;-80
2024/01/13 10:29:20;;;;;;;12.23;7.10;;;;;;;2.00;47.36;99160.53;5129723;27;20042;-77
2024/01/13 10:31:50;;;;;;;15.27;6.90;;;;;;;1.94;46.59;99169.38;5131844;27;20502;-79
2024/01/13 10:34:18;;;;;;;18.48;6.40;;;;;;;2.07;46.23;99180.88;5131185;27;20110;-78
2024/01/13 10:36:43;;;;;;;13.40;6.97;;;;;;;1.87;46.41;99152.97;5132481;27;20030;-78
2024/01/13 10:39:09;;;;;;;16.55;7.63;;;;;;;1.94;46.16;99150.31;5130699;27;20048;-77
2024/01/13 10:41:37;;;;;;;18.65;8.38;;;;;;;2.04;45.33;99177.75;5132152;27;20110;-79
2024/01/13 10:44:07;;;;;;;19.23;9.05;;;;;;;2.20;46.01;99183.00;5132197;27;20019;-80
2024/01/13 10:46:36;;;;;;;18.80;8.55;;;;;;;2.26;46.46;99175.28;5132177;27;20079;-80
2024/01/13 10:49:31;;;;;;;20.48;10.05;;;;;;;2.31;46.12;99161.34;5116050;27;20476;-79
2024/01/13 10:51:58;;;;;;;13.05;7.57;;;;;;;2.40;47.13;99170.81;5105427;27;20105;-79
2024/01/13 10:54:27;;;;;;;14.63;7.35;;;;;;;2.09;46.60;99110.44;5120228;27;20034;-80
2024/01/13 10:56:56;;;;;;;20.77;10.00;;;;;;;2.34;46.16;99145.03;5124329;27;20055;-80
2024/01/13 10:59:28;;;;;;;41.85;17.55;;;;;;;2.51;45.75;99170.94;5121038;27;20077;-83
2024/01/13 11:01:56;;;;;;;28.80;13.15;;;;;;;2.29;47.76;99122.78;5114571;28;20469;-79
2024/01/13 11:04:22;;;;;;;;;;;;;;;2.67;46.51;99148.91;5133050;27;20102;-78
2024/01/13 11:06:47;;;;;;;34.42;13.77;;;;;;;2.49;46.40;99115.19;5117171;27;20436;-78
2024/01/13 11:09:17;;;;;;;17.67;7.97;;;;;;;2.57;46.50;99131.28;5122107;27;20481;-79
2024/01/13 11:11:52;;;;;;;16.40;8.73;;;;;;;2.46;45.94;99086.75;5130803;27;20511;-79
2024/01/13 11:14:25;;;;;;;15.10;6.75;;;;;;;2.47;46.69;99083.63;5102382;28;20028;-79